Time;durP1;ratioP1;P1;durP2;ratioP2;P2;SDS_P1;SDS_P2;PMS_P1;PMS_P2;Temp;Humidity;BMP_temperature;BMP_pressure;BME280_temperature;BME280_humidity;BME280_pressure;Samples;Min_cycle;Max_cycle;Signal;HPM_P1;HPM_P2
2021/12/06 00:01:07;;;;;;;8.02;6.10;;;;;;;;;;5066232;28;20636;-32
2021/12/06 00:03:49;;;;;;;9.00;6.78;;;;;;;;;;5067377;28;20490;-31
2021/12/06 00:06:14;;;;;;;8.25;5.88;;;;;;;;;;5066930;28;20039;-30
2021/12/06 00:08:40;;;;;;;7.97;5.50;;;;;;;;;;5069576;28;20024;-29
2021/12/06 00:11:09;;;;;;;7.55;5.78;;;;;;;;;;5087117;28;20035;-31
2021/12/06 00:13:36;;;;;;;8.32;6.00;;;;;;;;;;5087259;28;20484;-31
2021/12/06 00:16:06;;;;;;;7.28;6.07;;;;;;;;;;5087187;28;20073;-32
2021/12/06 00:18:32;;;;;;;6.68;4.90;;;;;;;;;;5087190;28;20024;-28
2021/12/06 00:20:57;;;;;;;7.68;6.00;;;;;;;;;;5087361;28;20035;-31
2021/12/06 00:23:23;;;;;;;7.25;5.07;;;;;;;;;;5087336;28;20046;-29
2021/12/06 00:25:48;;;;;;;8.27;5.68;;;;;;;;;;5087099;28;20017;-28
2021/12/06 00:28:14;;;;;;;9.55;5.53;;;;;;;;;;5086939;28;20044;-30
2021/12/06 00:30:39;;;;;;;6.72;5.53;;;;;;;;;;5086717;28;20020;-28
2021/12/06 00:33:05;;;;;;;6.90;5.15;;;;;;;;;;5087146;28;20028;-29
2021/12/06 00:35:30;;;;;;;6.50;5.15;;;;;;;;;;5087364;28;20110;-29
2021/12/06 00:38:00;;;;;;;6.95;5.07;;;;;;;;;;5086619;28;20023;-33
2021/12/06 00:40:31;;;;;;;5.82;4.53;;;;;;;;;;5087268;28;20100;-28
2021/12/06 00:42:57;;;;;;;7.72;5.30;;;;;;;;;;5086422;28;20535;-31
2021/12/06 00:45:22;;;;;;;5.90;4.40;;;;;;;;;;5086324;28;20020;-34
2021/12/06 00:47:48;;;;;;;5.72;4.68;;;;;;;;;;5086547;28;20525;-30
2021/12/06 00:50:15;;;;;;;6.43;4.90;;;;;;;;;;5086724;28;20110;-34
2021/12/06 00:52:41;;;;;;;6.45;5.05;;;;;;;;;;5086082;28;20546;-31
2021/12/06 00:55:07;;;;;;;6.47;4.82;;;;;;;;;;5086787;28;20024;-29
2021/12/06 00:57:32;;;;;;;5.30;4.35;;;;;;;;;;5086325;28;20116;-32
2021/12/06 00:59:58;;;;;;;5.55;4.57;;;;;;;;;;5085571;28;20019;-37
2021/12/06 01:02:23;;;;;;;5.82;4.15;;;;;;;;;;5086593;28;20081;-31
2021/12/06 01:04:49;;;;;;;4.72;3.90;;;;;;;;;;5086280;28;20016;-28
2021/12/06 01:07:14;;;;;;;5.13;4.43;;;;;;;;;;5086359;28;20039;-27
2021/12/06 01:09:40;;;;;;;5.82;4.55;;;;;;;;;;5085820;28;20044;-27
2021/12/06 01:12:06;;;;;;;5.57;4.53;;;;;;;;;;5086379;28;20032;-30
2021/12/06 01:14:32;;;;;;;5.93;3.92;;;;;;;;;;5085816;28;20020;-28
2021/12/06 01:16:57;;;;;;;5.68;4.50;;;;;;;;;;5086232;28;20032;-31
2021/12/06 01:19:28;;;;;;;5.25;4.28;;;;;;;;;;5086333;28;20024;-29
2021/12/06 01:22:10;;;;;;;5.40;4.20;;;;;;;;;;5085336;28;20020;-31
2021/12/06 01:24:43;;;;;;;5.55;4.03;;;;;;;;;;5085527;28;20020;-28
2021/12/06 01:40:26;;;;;;;4.72;3.83;;;;;;;;;;5085642;28;20078;-27
2021/12/06 01:42:52;;;;;;;6.63;4.13;;;;;;;;;;5085490;28;20032;-30
2021/12/06 01:45:18;;;;;;;4.13;3.72;;;;;;;;;;5085870;28;20032;-31
2021/12/06 01:47:43;;;;;;;4.80;3.45;;;;;;;;;;5085788;28;20027;-34
2021/12/06 01:50:10;;;;;;;4.28;3.60;;;;;;;;;;5085623;28;20108;-28
2021/12/06 01:52:39;;;;;;;4.22;3.60;;;;;;;;;;5084651;28;20529;-29
2021/12/06 01:55:08;;;;;;;5.32;3.70;;;;;;;;;;5084940;28;20023;-31
2021/12/06 01:57:33;;;;;;;4.15;3.58;;;;;;;;;;5085219;28;20028;-32
2021/12/06 01:59:59;;;;;;;4.40;3.55;;;;;;;;;;5085257;28;20088;-31
2021/12/06 02:02:25;;;;;;;4.60;3.47;;;;;;;;;;5085359;28;20387;-32
2021/12/06 02:04:50;;;;;;;4.30;3.28;;;;;;;;;;5084583;28;20059;-26
2021/12/06 02:07:20;;;;;;;4.50;3.42;;;;;;;;;;5072157;28;20021;-30
2021/12/06 02:09:46;;;;;;;4.13;3.33;;;;;;;;;;5065549;28;20131;-35
2021/12/06 02:12:12;;;;;;;3.83;3.25;;;;;;;;;;5065064;28;20034;-31
2021/12/06 02:19:41;;;;;;;3.63;2.88;;;;;;;;;;5064837;28;20024;-30
2021/12/06 02:22:09;;;;;;;5.15;3.78;;;;;;;;;;5064862;28;20028;-30
2021/12/06 02:24:37;;;;;;;4.03;3.13;;;;;;;;;;5064759;28;20426;-31
2021/12/06 02:27:03;;;;;;;3.75;3.17;;;;;;;;;;5064460;28;20583;-32
2021/12/06 02:29:29;;;;;;;4.13;3.33;;;;;;;;;;5064815;28;20142;-28
2021/12/06 02:31:55;;;;;;;3.75;3.35;;;;;;;;;;5064487;28;20036;-28
2021/12/06 02:34:20;;;;;;;4.20;3.00;;;;;;;;;;5064725;28;20107;-31
2021/12/06 02:36:46;;;;;;;3.13;2.78;;;;;;;;;;5064398;28;20032;-31
2021/12/06 02:39:19;;;;;;;4.35;3.50;;;;;;;;;;5064687;28;20039;-27
2021/12/06 02:41:46;;;;;;;3.53;3.00;;;;;;;;;;5064512;28;20041;-31
2021/12/06 02:44:12;;;;;;;3.45;2.90;;;;;;;;;;5064708;28;20040;-27
2021/12/06 02:46:37;;;;;;;3.75;3.35;;;;;;;;;;5064314;28;20081;-33
2021/12/06 02:49:03;;;;;;;3.97;3.05;;;;;;;;;;5064448;28;20031;-30
2021/12/06 02:51:29;;;;;;;4.03;2.97;;;;;;;;;;5064280;28;20025;-31
2021/12/06 02:53:55;;;;;;;3.40;2.83;;;;;;;;;;5064312;28;20491;-28
2021/12/06 02:58:56;;;;;;;3.30;2.90;;;;;;;;;;5064518;28;20043;-27
2021/12/06 03:01:31;;;;;;;3.75;2.80;;;;;;;;;;5064554;28;20490;-26
2021/12/06 03:03:57;;;;;;;3.58;2.55;;;;;;;;;;5064342;28;20028;-32
2021/12/06 03:06:26;;;;;;;3.90;2.47;;;;;;;;;;5064472;28;20483;-31
2021/12/06 03:09:21;;;;;;;3.65;2.72;;;;;;;;;;5076084;28;20071;-28
2021/12/06 03:11:58;;;;;;;3.10;2.70;;;;;;;;;;5086828;28;20040;-30
2021/12/06 03:14:33;;;;;;;3.60;2.92;;;;;;;;;;5088579;28;20069;-32
2021/12/06 03:16:59;;;;;;;3.30;2.80;;;;;;;;;;5088333;28;20020;-26
2021/12/06 03:19:25;;;;;;;3.67;2.85;;;;;;;;;;5088520;28;20413;-30
2021/12/06 03:21:50;;;;;;;3.30;2.50;;;;;;;;;;5088345;28;20119;-30
2021/12/06 03:24:16;;;;;;;3.33;2.80;;;;;;;;;;5087535;28;20024;-29
2021/12/06 03:26:41;;;;;;;2.80;2.33;;;;;;;;;;5087431;28;20115;-28
2021/12/06 03:29:07;;;;;;;3.05;2.58;;;;;;;;;;5088074;28;20119;-32
2021/12/06 03:31:32;;;;;;;3.10;2.35;;;;;;;;;;5088357;28;20418;-29
2021/12/06 03:33:58;;;;;;;3.05;2.30;;;;;;;;;;5088431;28;20806;-33
2021/12/06 03:36:25;;;;;;;2.85;2.55;;;;;;;;;;5088425;28;20474;-32
2021/12/06 03:38:50;;;;;;;2.90;2.45;;;;;;;;;;5087327;28;20024;-30
2021/12/06 03:41:16;;;;;;;2.97;2.45;;;;;;;;;;5087710;28;20034;-30
2021/12/06 03:43:42;;;;;;;3.22;2.60;;;;;;;;;;5087125;28;20044;-30
2021/12/06 03:46:08;;;;;;;2.72;2.35;;;;;;;;;;5087962;28;20410;-28
2021/12/06 03:48:34;;;;;;;2.08;1.88;;;;;;;;;;5087936;28;20101;-28
2021/12/06 03:51:00;;;;;;;3.15;2.47;;;;;;;;;;5087810;28;20693;-31
2021/12/06 03:53:25;;;;;;;3.47;2.47;;;;;;;;;;5087755;28;20452;-30
2021/12/06 03:55:51;;;;;;;2.20;2.00;;;;;;;;;;5087667;28;20505;-26
2021/12/06 03:58:16;;;;;;;2.67;2.40;;;;;;;;;;5088093;28;20035;-30
2021/12/06 04:00:42;;;;;;;2.75;2.20;;;;;;;;;;5087147;28;20055;-29
2021/12/06 04:03:08;;;;;;;2.53;2.10;;;;;;;;;;5087727;28;20028;-29
2021/12/06 04:05:33;;;;;;;3.25;2.63;;;;;;;;;;5087372;28;20032;-29
2021/12/06 04:07:59;;;;;;;3.10;2.58;;;;;;;;;;5086647;28;20032;-31
2021/12/06 04:10:26;;;;;;;2.58;2.38;;;;;;;;;;5087304;28;20028;-29
2021/12/06 04:12:52;;;;;;;3.13;2.50;;;;;;;;;;5087216;28;20047;-28
2021/12/06 04:15:18;;;;;;;4.70;2.20;;;;;;;;;;5087220;28;20115;-29
2021/12/06 04:17:43;;;;;;;3.38;2.40;;;;;;;;;;5087321;28;20120;-30
2021/12/06 04:20:10;;;;;;;3.00;2.28;;;;;;;;;;5086717;28;20028;-31
2021/12/06 04:22:36;;;;;;;2.90;2.20;;;;;;;;;;5087353;28;20024;-27
2021/12/06 04:25:02;;;;;;;2.47;2.20;;;;;;;;;;5087472;28;20028;-28
2021/12/06 04:27:28;;;;;;;5.15;2.45;;;;;;;;;;5087337;28;20134;-32
2021/12/06 04:29:53;;;;;;;2.72;2.10;;;;;;;;;;5086929;28;20174;-29
2021/12/06 04:32:20;;;;;;;3.80;2.08;;;;;;;;;;5086785;28;20585;-31
2021/12/06 04:34:46;;;;;;;2.72;2.28;;;;;;;;;;5086925;28;20032;-32
2021/12/06 04:37:11;;;;;;;3.38;2.30;;;;;;;;;;5068639;28;20032;-28
2021/12/06 04:39:37;;;;;;;2.65;2.28;;;;;;;;;;5086961;28;20024;-30
2021/12/06 04:42:03;;;;;;;2.45;2.03;;;;;;;;;;5086780;28;20051;-26
2021/12/06 04:44:28;;;;;;;2.75;2.08;;;;;;;;;;5086519;28;20035;-30
2021/12/06 04:46:54;;;;;;;2.13;1.92;;;;;;;;;;5086618;28;20028;-32
2021/12/06 04:49:20;;;;;;;2.33;2.00;;;;;;;;;;5086780;28;20024;-31
2021/12/06 04:51:48;;;;;;;2.88;2.47;;;;;;;;;;5068396;28;20047;-28
2021/12/06 04:54:14;;;;;;;2.22;1.90;;;;;;;;;;5086760;28;20028;-31
2021/12/06 04:56:43;;;;;;;2.40;2.20;;;;;;;;;;5082863;28;20131;-26
2021/12/06 04:59:21;;;;;;;2.50;2.08;;;;;;;;;;5066599;28;20108;-28
2021/12/06 05:01:47;;;;;;;2.03;1.80;;;;;;;;;;5066307;28;20112;-32
2021/12/06 05:04:16;;;;;;;3.17;1.75;;;;;;;;;;5065591;28;20482;-32
2021/12/06 05:06:43;;;;;;;2.00;1.70;;;;;;;;;;5065326;28;20032;-29
2021/12/06 05:09:15;;;;;;;4.07;2.08;;;;;;;;;;5079042;28;20054;-33
2021/12/06 05:11:41;;;;;;;2.88;2.17;;;;;;;;;;5086519;28;20039;-30
2021/12/06 05:14:07;;;;;;;2.85;1.90;;;;;;;;;;5085537;28;20531;-31
2021/12/06 05:16:35;;;;;;;4.55;2.20;;;;;;;;;;5085452;28;20027;-34
2021/12/06 05:19:00;;;;;;;2.22;1.95;;;;;;;;;;5085906;28;20028;-32
2021/12/06 05:21:26;;;;;;;2.22;1.98;;;;;;;;;;5085650;28;20028;-31
2021/12/06 05:23:52;;;;;;;2.60;2.00;;;;;;;;;;5085625;28;20410;-31
2021/12/06 05:26:17;;;;;;;2.67;1.70;;;;;;;;;;5085644;28;20497;-32
2021/12/06 05:28:44;;;;;;;4.15;1.90;;;;;;;;;;5085580;28;20048;-34
2021/12/06 05:31:19;;;;;;;2.88;2.00;;;;;;;;;;5085878;28;20118;-30
2021/12/06 05:33:47;;;;;;;10.05;2.10;;;;;;;;;;5085484;28;20551;-35
2021/12/06 05:36:13;;;;;;;6.90;2.58;;;;;;;;;;5085281;28;20647;-31
2021/12/06 05:38:38;;;;;;;8.40;2.10;;;;;;;;;;5085715;28;20115;-33
2021/12/06 05:41:04;;;;;;;22.30;3.17;;;;;;;;;;5085329;28;20437;-32
2021/12/06 05:43:30;;;;;;;8.27;3.08;;;;;;;;;;5063940;28;20031;-31
2021/12/06 05:45:55;;;;;;;9.18;2.92;;;;;;;;;;5065504;28;20403;-34
2021/12/06 05:48:21;;;;;;;8.07;2.90;;;;;;;;;;5065405;28;20498;-30
2021/12/06 05:50:47;;;;;;;8.63;2.53;;;;;;;;;;5072639;28;20032;-32
2021/12/06 05:53:13;;;;;;;5.45;2.60;;;;;;;;;;5073868;28;20043;-33
2021/12/06 05:55:39;;;;;;;5.57;3.05;;;;;;;;;;5065209;28;20032;-34
2021/12/06 05:58:04;;;;;;;5.95;2.47;;;;;;;;;;5066420;28;20761;-31
2021/12/06 06:00:32;;;;;;;6.03;2.80;;;;;;;;;;5084154;28;20024;-28
2021/12/06 06:03:00;;;;;;;4.65;2.67;;;;;;;;;;5084204;28;20098;-29
2021/12/06 06:05:26;;;;;;;4.82;2.70;;;;;;;;;;5083858;28;20027;-35
2021/12/06 06:07:51;;;;;;;5.10;2.47;;;;;;;;;;5083238;28;20583;-31
2021/12/06 06:10:17;;;;;;;7.85;2.63;;;;;;;;;;5067872;28;20035;-28
2021/12/06 06:12:42;;;;;;;4.90;2.30;;;;;;;;;;5071704;28;20044;-31
2021/12/06 06:15:08;;;;;;;8.60;3.33;;;;;;;;;;5073453;28;20036;-31
2021/12/06 06:17:40;;;;;;;4.72;2.42;;;;;;;;;;5076170;28;20032;-29
2021/12/06 06:20:08;;;;;;;6.27;2.73;;;;;;;;;;5072670;28;20024;-32
2021/12/06 06:22:33;;;;;;;6.35;2.88;;;;;;;;;;5063328;28;20400;-31
2021/12/06 06:24:59;;;;;;;7.38;2.60;;;;;;;;;;5062011;28;20029;-29
2021/12/06 06:27:24;;;;;;;4.63;2.47;;;;;;;;;;5061935;28;20079;-30
2021/12/06 06:30:16;;;;;;;4.10;2.58;;;;;;;;;;5061672;28;20651;-35
2021/12/06 06:32:41;;;;;;;5.53;2.65;;;;;;;;;;5061875;28;20040;-32
2021/12/06 06:35:07;;;;;;;6.20;2.67;;;;;;;;;;5062093;28;20055;-29
2021/12/06 06:37:33;;;;;;;5.05;2.95;;;;;;;;;;5062159;28;20102;-30
2021/12/06 06:39:58;;;;;;;4.05;2.90;;;;;;;;;;5079316;28;20036;-29
2021/12/06 06:42:24;;;;;;;5.35;2.75;;;;;;;;;;5084597;28;20035;-33
2021/12/06 06:44:50;;;;;;;8.73;4.25;;;;;;;;;;5088569;28;20032;-32
2021/12/06 06:47:16;;;;;;;8.02;3.35;;;;;;;;;;5088871;28;20561;-33
2021/12/06 06:49:42;;;;;;;8.27;3.22;;;;;;;;;;5083919;28;20016;-29
2021/12/06 06:52:07;;;;;;;4.15;2.97;;;;;;;;;;5086135;28;20036;-31
2021/12/06 06:54:32;;;;;;;7.72;3.03;;;;;;;;;;5087610;28;20027;-31
2021/12/06 06:56:58;;;;;;;5.38;3.25;;;;;;;;;;5087939;28;20028;-31
2021/12/06 06:59:23;;;;;;;5.20;3.25;;;;;;;;;;5087714;28;20035;-33
2021/12/06 07:01:49;;;;;;;6.40;3.00;;;;;;;;;;5088173;28;20020;-30
2021/12/06 07:04:14;;;;;;;7.90;2.78;;;;;;;;;;5088675;28;20039;-29
2021/12/06 07:06:40;;;;;;;5.53;3.35;;;;;;;;;;5088529;28;20016;-34
2021/12/06 07:09:06;;;;;;;5.90;2.70;;;;;;;;;;5087343;28;20393;-30
2021/12/06 07:11:32;;;;;;;6.43;3.10;;;;;;;;;;5087884;28;20058;-30
2021/12/06 07:13:57;;;;;;;4.28;2.95;;;;;;;;;;5087282;28;20028;-33
2021/12/06 07:16:23;;;;;;;4.57;2.95;;;;;;;;;;5086864;28;20100;-31
2021/12/06 07:18:49;;;;;;;9.32;3.10;;;;;;;;;;5087176;28;20024;-32
2021/12/06 07:21:14;;;;;;;5.55;2.72;;;;;;;;;;5068780;28;20023;-32
2021/12/06 07:23:41;;;;;;;6.70;3.42;;;;;;;;;;5086963;28;20035;-28
2021/12/06 07:26:12;;;;;;;3.95;2.70;;;;;;;;;;5086598;28;20860;-29
2021/12/06 07:28:38;;;;;;;4.57;2.72;;;;;;;;;;5087877;28;20051;-32
2021/12/06 07:31:06;;;;;;;3.75;2.80;;;;;;;;;;5087921;28;20024;-31
2021/12/06 07:33:32;;;;;;;6.93;2.90;;;;;;;;;;5088065;28;20103;-31
2021/12/06 07:35:58;;;;;;;5.63;3.03;;;;;;;;;;5088026;28;20531;-30
2021/12/06 07:38:23;;;;;;;7.03;2.88;;;;;;;;;;5087900;28;20031;-30
2021/12/06 07:40:50;;;;;;;4.30;2.88;;;;;;;;;;5088007;28;20024;-30
2021/12/06 07:43:19;;;;;;;3.25;2.40;;;;;;;;;;5088186;28;20024;-31
2021/12/06 07:45:45;;;;;;;3.78;2.67;;;;;;;;;;5087629;28;20032;-32
2021/12/06 07:48:10;;;;;;;5.32;2.72;;;;;;;;;;5088262;28;20035;-31
2021/12/06 07:50:36;;;;;;;5.80;3.10;;;;;;;;;;5087750;28;20020;-32
2021/12/06 07:53:01;;;;;;;6.07;2.70;;;;;;;;;;5087017;28;20028;-29
2021/12/06 07:55:30;;;;;;;5.65;3.00;;;;;;;;;;5087721;28;20028;-30
2021/12/06 07:57:57;;;;;;;3.67;2.72;;;;;;;;;;5087568;28;20028;-31
2021/12/06 08:00:25;;;;;;;3.38;2.72;;;;;;;;;;5087398;28;20472;-30
2021/12/06 08:02:50;;;;;;;4.78;3.13;;;;;;;;;;5087860;28;20053;-32
2021/12/06 08:05:32;;;;;;;4.88;2.92;;;;;;;;;;5069463;28;20636;-28
2021/12/06 08:08:08;;;;;;;4.30;2.58;;;;;;;;;;5080026;28;20078;-29
2021/12/06 08:10:36;;;;;;;6.75;2.75;;;;;;;;;;5067123;28;20033;-29
2021/12/06 08:13:01;;;;;;;4.70;2.80;;;;;;;;;;5066967;28;20036;-28
2021/12/06 08:15:27;;;;;;;2.65;2.45;;;;;;;;;;5067189;28;20082;-31
2021/12/06 08:17:52;;;;;;;3.63;2.95;;;;;;;;;;5067346;28;20033;-31
2021/12/06 08:20:18;;;;;;;4.35;2.47;;;;;;;;;;5067255;28;20422;-29
2021/12/06 08:22:43;;;;;;;3.22;2.60;;;;;;;;;;5049062;28;20065;-35
2021/12/06 08:25:10;;;;;;;3.20;2.67;;;;;;;;;;5067302;28;20033;-29
2021/12/06 08:27:35;;;;;;;3.92;2.53;;;;;;;;;;5066796;28;20041;-29
2021/12/06 08:30:01;;;;;;;2.60;2.20;;;;;;;;;;5066814;28;20024;-32
2021/12/06 08:32:27;;;;;;;2.78;2.25;;;;;;;;;;5066393;28;20406;-29
2021/12/06 08:34:52;;;;;;;3.10;2.15;;;;;;;;;;5066755;28;20117;-30
2021/12/06 08:37:18;;;;;;;2.70;1.90;;;;;;;;;;5066810;28;20024;-34
2021/12/06 08:39:43;;;;;;;2.67;2.15;;;;;;;;;;5066871;28;20032;-29
2021/12/06 08:42:09;;;;;;;2.67;2.10;;;;;;;;;;5066336;28;20501;-30
2021/12/06 08:44:34;;;;;;;2.88;2.20;;;;;;;;;;5066475;28;20107;-28
2021/12/06 08:47:01;;;;;;;2.10;1.85;;;;;;;;;;5066196;28;20027;-29
2021/12/06 08:49:28;;;;;;;3.35;2.05;;;;;;;;;;5066452;28;20025;-34
2021/12/06 08:51:55;;;;;;;2.70;2.30;;;;;;;;;;5066573;28;20047;-34
2021/12/06 08:54:24;;;;;;;2.42;2.05;;;;;;;;;;5066547;28;20043;-31
2021/12/06 08:56:51;;;;;;;2.83;2.38;;;;;;;;;;5065964;28;20803;-31
2021/12/06 08:59:16;;;;;;;2.72;1.90;;;;;;;;;;5066588;28;20033;-32
2021/12/06 09:01:42;;;;;;;2.15;1.95;;;;;;;;;;5080549;28;20402;-32
2021/12/06 09:04:12;;;;;;;2.40;2.03;;;;;;;;;;5086139;28;20032;-32
2021/12/06 09:06:39;;;;;;;2.20;1.75;;;;;;;;;;5085580;28;20040;-29
2021/12/06 09:09:07;;;;;;;3.65;2.50;;;;;;;;;;5086167;28;20028;-31
2021/12/06 09:11:33;;;;;;;2.42;2.00;;;;;;;;;;5085908;28;20047;-29
2021/12/06 09:13:59;;;;;;;3.38;2.33;;;;;;;;;;5086327;28;20028;-33
2021/12/06 09:16:24;;;;;;;2.42;1.80;;;;;;;;;;5086322;28;20472;-32
2021/12/06 09:18:50;;;;;;;2.67;2.17;;;;;;;;;;5086131;28;20024;-32
2021/12/06 09:21:17;;;;;;;5.47;2.40;;;;;;;;;;5086149;28;20035;-30
2021/12/06 09:23:43;;;;;;;2.53;1.80;;;;;;;;;;5086330;28;20042;-30
2021/12/06 09:26:08;;;;;;;2.33;1.83;;;;;;;;;;5085659;28;20477;-30
2021/12/06 09:28:34;;;;;;;2.38;2.08;;;;;;;;;;5085287;28;20036;-29
2021/12/06 09:31:01;;;;;;;2.38;2.17;;;;;;;;;;5086166;28;20020;-35
2021/12/06 09:33:27;;;;;;;2.50;2.10;;;;;;;;;;5086245;28;20059;-31
2021/12/06 09:35:58;;;;;;;3.28;2.40;;;;;;;;;;5085892;28;20063;-32
2021/12/06 09:38:28;;;;;;;2.75;2.10;;;;;;;;;;5086190;28;20042;-29
2021/12/06 09:40:54;;;;;;;2.38;2.10;;;;;;;;;;5085739;28;20563;-32
2021/12/06 09:43:19;;;;;;;2.53;2.33;;;;;;;;;;5085761;28;20028;-37
2021/12/06 09:45:45;;;;;;;2.80;2.30;;;;;;;;;;5085967;28;20028;-29
2021/12/06 09:48:12;;;;;;;2.63;2.25;;;;;;;;;;5085407;28;20016;-31
2021/12/06 09:50:40;;;;;;;2.65;2.33;;;;;;;;;;5085597;28;20580;-31
2021/12/06 09:53:08;;;;;;;3.05;2.10;;;;;;;;;;5085323;28;21076;-31
2021/12/06 09:55:33;;;;;;;3.15;2.33;;;;;;;;;;5085536;28;20032;-31
2021/12/06 09:57:59;;;;;;;2.65;2.08;;;;;;;;;;5067189;28;20169;-30
2021/12/06 10:00:26;;;;;;;2.50;2.00;;;;;;;;;;5084856;28;20024;-30
2021/12/06 10:02:51;;;;;;;2.85;2.13;;;;;;;;;;5085058;28;20024;-28
2021/12/06 10:05:17;;;;;;;2.53;2.13;;;;;;;;;;5085206;28;20024;-32
2021/12/06 10:07:42;;;;;;;2.92;2.35;;;;;;;;;;5085305;28;20036;-30
2021/12/06 10:10:09;;;;;;;3.20;2.50;;;;;;;;;;5084954;28;20429;-30
2021/12/06 10:12:34;;;;;;;3.15;2.45;;;;;;;;;;5085142;28;20059;-29
2021/12/06 10:15:02;;;;;;;3.35;2.15;;;;;;;;;;5084952;28;20070;-35
2021/12/06 10:17:28;;;;;;;3.17;2.28;;;;;;;;;;5084306;28;20825;-31
2021/12/06 10:19:54;;;;;;;2.63;2.22;;;;;;;;;;5085135;28;20055;-35
2021/12/06 10:22:19;;;;;;;3.05;2.25;;;;;;;;;;5085031;28;20051;-29
2021/12/06 10:24:52;;;;;;;3.53;2.67;;;;;;;;;;5084757;28;20024;-31
2021/12/06 10:27:17;;;;;;;2.67;2.38;;;;;;;;;;5084958;28;20120;-30
2021/12/06 10:30:04;;;;;;;2.70;2.13;;;;;;;;;;5066938;28;20039;-31
2021/12/06 10:32:32;;;;;;;2.55;2.33;;;;;;;;;;5069099;28;20044;-29
2021/12/06 10:35:03;;;;;;;3.55;2.35;;;;;;;;;;5084890;28;20134;-29
2021/12/06 10:37:33;;;;;;;2.53;2.00;;;;;;;;;;5084639;28;20032;-29
2021/12/06 10:39:59;;;;;;;2.20;2.00;;;;;;;;;;5084838;28;20032;-29
2021/12/06 10:42:36;;;;;;;2.85;2.35;;;;;;;;;;5084890;28;20027;-29
2021/12/06 10:45:10;;;;;;;3.20;2.50;;;;;;;;;;5084773;28;20414;-29
2021/12/06 10:47:37;;;;;;;3.45;2.50;;;;;;;;;;5084699;28;20043;-31
2021/12/06 10:50:14;;;;;;;3.05;2.42;;;;;;;;;;5084541;28;20108;-30
2021/12/06 10:52:50;;;;;;;2.30;2.00;;;;;;;;;;5084606;28;20032;-31
2021/12/06 10:55:16;;;;;;;2.47;2.15;;;;;;;;;;5084488;28;20409;-30
2021/12/06 10:57:52;;;;;;;2.70;2.30;;;;;;;;;;5066320;28;20024;-34
2021/12/06 11:00:31;;;;;;;2.97;2.50;;;;;;;;;;5084658;28;20063;-32
2021/12/06 11:02:56;;;;;;;3.20;2.60;;;;;;;;;;5084721;28;20031;-33
2021/12/06 11:05:26;;;;;;;3.25;2.50;;;;;;;;;;5084795;28;20028;-28
2021/12/06 11:08:10;;;;;;;4.05;2.85;;;;;;;;;;5084948;28;20035;-28
2021/12/06 11:10:47;;;;;;;3.65;2.80;;;;;;;;;;5083954;28;20122;-30
2021/12/06 11:13:24;;;;;;;2.88;2.45;;;;;;;;;;5084548;28;20116;-31
2021/12/06 11:15:53;;;;;;;3.80;2.47;;;;;;;;;;5084800;28;20120;-32
2021/12/06 11:18:33;;;;;;;3.03;2.55;;;;;;;;;;5084612;28;20034;-31
2021/12/06 11:20:58;;;;;;;2.33;1.88;;;;;;;;;;5084388;28;20501;-28
2021/12/06 11:23:24;;;;;;;2.70;2.40;;;;;;;;;;5084894;28;20028;-35
2021/12/06 11:26:01;;;;;;;2.97;2.35;;;;;;;;;;5066823;28;20517;-32
2021/12/06 11:28:29;;;;;;;2.80;2.38;;;;;;;;;;5085421;28;20487;-30
2021/12/06 11:31:02;;;;;;;3.10;2.47;;;;;;;;;;5088179;28;20046;-28
2021/12/06 11:33:34;;;;;;;3.92;2.40;;;;;;;;;;5088091;28;20036;-29
2021/12/06 11:36:13;;;;;;;3.28;2.65;;;;;;;;;;5088144;28;20049;-29
2021/12/06 11:38:38;;;;;;;3.20;2.50;;;;;;;;;;5069276;28;20118;-34
2021/12/06 11:41:04;;;;;;;2.55;2.15;;;;;;;;;;5088269;28;20149;-30
2021/12/06 11:43:29;;;;;;;3.08;2.35;;;;;;;;;;5053134;28;20020;-29
2021/12/06 11:45:57;;;;;;;2.33;2.10;;;;;;;;;;5069479;28;20040;-30
2021/12/06 11:48:29;;;;;;;2.60;2.28;;;;;;;;;;5087735;28;20058;-32
2021/12/06 11:50:57;;;;;;;2.80;2.38;;;;;;;;;;5087099;28;20029;-29
2021/12/06 11:53:28;;;;;;;3.13;2.45;;;;;;;;;;5088023;28;20044;-29
2021/12/06 11:55:57;;;;;;;2.42;2.20;;;;;;;;;;5088125;28;20150;-30
2021/12/06 11:58:40;;;;;;;3.15;2.28;;;;;;;;;;5084978;28;20326;-29
2021/12/06 12:01:16;;;;;;;2.45;2.17;;;;;;;;;;5067514;28;20469;-26
2021/12/06 12:03:44;;;;;;;2.95;2.30;;;;;;;;;;5067517;28;20043;-30
2021/12/06 12:06:26;;;;;;;2.80;1.95;;;;;;;;;;5049322;28;20032;-31
2021/12/06 12:09:04;;;;;;;3.13;2.30;;;;;;;;;;5067346;28;20036;-31
2021/12/06 12:11:29;;;;;;;2.60;2.30;;;;;;;;;;5067329;28;20188;-30
2021/12/06 12:13:56;;;;;;;2.60;2.15;;;;;;;;;;5066796;28;20032;-30
2021/12/06 12:16:22;;;;;;;2.75;2.45;;;;;;;;;;5067188;28;20498;-33
2021/12/06 12:18:47;;;;;;;2.80;2.33;;;;;;;;;;5067224;28;20112;-30
2021/12/06 12:21:14;;;;;;;2.88;2.08;;;;;;;;;;5066970;28;20598;-29
2021/12/06 12:23:41;;;;;;;2.50;2.30;;;;;;;;;;5067098;28;20032;-31
2021/12/06 12:26:12;;;;;;;3.28;2.40;;;;;;;;;;5067016;28;20103;-31
2021/12/06 12:31:15;;;;;;;2.95;2.33;;;;;;;;;;5066990;28;20028;-30
2021/12/06 12:33:41;;;;;;;2.65;2.45;;;;;;;;;;5066673;28;20158;-31
2021/12/06 12:36:12;;;;;;;2.72;2.10;;;;;;;;;;5066850;28;20099;-33
2021/12/06 12:38:38;;;;;;;3.17;2.33;;;;;;;;;;5066194;28;20410;-32
2021/12/06 12:41:09;;;;;;;3.00;2.30;;;;;;;;;;5047680;28;20086;-33
2021/12/06 12:43:40;;;;;;;2.75;2.33;;;;;;;;;;5066615;28;20115;-30
2021/12/06 12:46:10;;;;;;;2.92;2.30;;;;;;;;;;5066611;28;20040;-29
2021/12/06 12:48:56;;;;;;;3.95;2.85;;;;;;;;;;5066110;28;20486;-31
2021/12/06 12:51:30;;;;;;;2.88;2.20;;;;;;;;;;5066899;28;20032;-31
2021/12/06 12:54:00;;;;;;;2.67;2.47;;;;;;;;;;5066180;28;20474;-33
2021/12/06 12:56:28;;;;;;;2.92;2.58;;;;;;;;;;5066329;28;20024;-29
2021/12/06 12:58:54;;;;;;;3.97;2.60;;;;;;;;;;5066634;28;20035;-32
2021/12/06 13:01:21;;;;;;;3.10;2.42;;;;;;;;;;5066481;28;20410;-31
2021/12/06 13:04:00;;;;;;;3.60;2.53;;;;;;;;;;5066029;28;20115;-30
2021/12/06 13:06:35;;;;;;;3.38;2.75;;;;;;;;;;5065555;28;20021;-31
2021/12/06 13:09:03;;;;;;;3.65;2.90;;;;;;;;;;5066005;28;20116;-31
2021/12/06 13:11:55;;;;;;;2.97;2.30;;;;;;;;;;5066282;28;20032;-32
2021/12/06 13:14:40;;;;;;;3.22;2.55;;;;;;;;;;5066305;28;20054;-29
2021/12/06 13:17:09;;;;;;;3.53;2.85;;;;;;;;;;5066048;28;20032;-32
2021/12/06 13:22:10;;;;;;;3.03;2.53;;;;;;;;;;5065553;28;20032;-34
2021/12/06 13:24:43;;;;;;;3.42;2.70;;;;;;;;;;5065877;28;20033;-34
2021/12/06 13:27:17;;;;;;;3.63;2.70;;;;;;;;;;5065408;28;20032;-29
2021/12/06 13:30:21;;;;;;;3.67;2.75;;;;;;;;;;5065938;28;20502;-30
2021/12/06 13:32:58;;;;;;;3.22;2.55;;;;;;;;;;5065903;28;20036;-29
2021/12/06 13:35:42;;;;;;;2.80;2.35;;;;;;;;;;5065799;28;20445;-34
2021/12/06 13:38:12;;;;;;;3.50;2.67;;;;;;;;;;5065609;28;20032;-32
2021/12/06 13:40:44;;;;;;;2.60;2.30;;;;;;;;;;5065446;28;20028;-28
2021/12/06 13:43:18;;;;;;;2.70;2.30;;;;;;;;;;5065498;28;20141;-33
2021/12/06 13:45:52;;;;;;;2.80;2.40;;;;;;;;;;5065520;28;20495;-32
2021/12/06 13:48:24;;;;;;;3.08;2.72;;;;;;;;;;5065291;28;20841;-30
2021/12/06 13:50:50;;;;;;;3.00;2.45;;;;;;;;;;5064931;28;20082;-29
2021/12/06 13:53:24;;;;;;;3.90;2.50;;;;;;;;;;5076393;28;20024;-30
2021/12/06 13:55:50;;;;;;;4.18;2.38;;;;;;;;;;5085371;28;20024;-29
2021/12/06 13:58:16;;;;;;;3.30;2.80;;;;;;;;;;5085460;28;20039;-30
2021/12/06 14:00:45;;;;;;;2.58;2.17;;;;;;;;;;5084776;28;20402;-28
2021/12/06 14:03:14;;;;;;;3.25;2.50;;;;;;;;;;5067224;28;20035;-30
2021/12/06 14:05:49;;;;;;;2.90;2.30;;;;;;;;;;5084650;28;20016;-35
2021/12/06 14:08:19;;;;;;;2.78;2.33;;;;;;;;;;5084846;28;20415;-32
2021/12/06 14:10:44;;;;;;;3.72;2.70;;;;;;;;;;5085355;28;20028;-32
2021/12/06 14:13:10;;;;;;;3.00;2.60;;;;;;;;;;5085103;28;20124;-30
2021/12/06 14:18:10;;;;;;;2.72;2.03;;;;;;;;;;5085074;28;20032;-30
2021/12/06 14:20:38;;;;;;;2.45;2.05;;;;;;;;;;5084978;28;20019;-33
2021/12/06 14:23:05;;;;;;;2.55;2.08;;;;;;;;;;5050713;28;20490;-29
2021/12/06 14:25:30;;;;;;;2.80;2.38;;;;;;;;;;5085103;28;20156;-27
2021/12/06 14:27:56;;;;;;;3.00;2.30;;;;;;;;;;5083893;28;20100;-31
2021/12/06 14:30:22;;;;;;;2.80;2.40;;;;;;;;;;5082476;28;20031;-30
2021/12/06 14:32:54;;;;;;;2.60;2.20;;;;;;;;;;5064673;28;20028;-30
2021/12/06 14:35:22;;;;;;;3.43;2.77;;;;;;;;;;5064650;28;20032;-32
2021/12/06 14:37:47;;;;;;;3.33;2.35;;;;;;;;;;5064706;28;20059;-30
2021/12/06 14:40:13;;;;;;;3.10;2.47;;;;;;;;;;5064380;28;20072;-33
2021/12/06 14:42:39;;;;;;;3.05;2.40;;;;;;;;;;5046812;28;20048;-32
2021/12/06 14:45:06;;;;;;;2.95;2.53;;;;;;;;;;5064700;28;20518;-29
2021/12/06 14:47:42;;;;;;;2.80;2.22;;;;;;;;;;5064820;28;20116;-31
2021/12/06 14:50:10;;;;;;;2.95;2.50;;;;;;;;;;5065550;28;20064;-36
2021/12/06 14:52:40;;;;;;;4.70;2.80;;;;;;;;;;5084238;28;20581;-30
2021/12/06 14:57:43;;;;;;;2.95;2.63;;;;;;;;;;5084937;28;20411;-28
2021/12/06 15:00:14;;;;;;;3.35;2.72;;;;;;;;;;5082969;28;20095;-32
2021/12/06 15:02:50;;;;;;;19.83;3.70;;;;;;;;;;5084108;28;20024;-27
2021/12/06 15:05:47;;;;;;;6.18;3.13;;;;;;;;;;5079510;28;20028;-33
2021/12/06 15:08:19;;;;;;;11.13;2.78;;;;;;;;;;5080402;28;20027;-33
2021/12/06 15:10:47;;;;;;;3.90;3.17;;;;;;;;;;5074578;28;20024;-32
2021/12/06 15:13:12;;;;;;;3.20;2.53;;;;;;;;;;5072527;28;20032;-31
2021/12/06 15:15:41;;;;;;;2.72;2.35;;;;;;;;;;5085349;28;20039;-28
2021/12/06 15:18:07;;;;;;;4.47;2.50;;;;;;;;;;5070813;28;20042;-31
2021/12/06 15:20:34;;;;;;;3.60;2.40;;;;;;;;;;5065668;28;20225;-32